Time;durP1;ratioP1;P1;durP2;ratioP2;P2;SDS_P1;SDS_P2;PMS_P1;PMS_P2;Temp;Humidity;BMP_temperature;BMP_pressure;BME280_temperature;BME280_humidity;BME280_pressure;Samples;Min_cycle;Max_cycle;Signal;HPM_P1;HPM_P2
2022/12/03 00:03:08;;;;;;;139.85;108.82;;;20.30;50.30;;;;;;4748143;55;21136;-38
2022/12/03 00:08:09;;;;;;;136.70;110.70;;;20.30;50.20;;;;;;4703791;55;21012;-36
2022/12/03 00:13:09;;;;;;;143.77;110.78;;;20.30;50.20;;;;;;4789439;55;21537;-37
2022/12/03 00:18:10;;;;;;;137.15;109.72;;;20.30;50.20;;;;;;4797736;55;21509;-35
2022/12/03 00:23:11;;;;;;;132.85;103.97;;;20.30;50.10;;;;;;4996016;55;21023;-34
2022/12/03 00:28:12;;;;;;;138.98;107.93;;;20.30;50.10;;;;;;5079931;55;21100;-34
2022/12/03 00:33:13;;;;;;;136.20;106.15;;;20.30;50.10;;;;;;4972783;55;21023;-31
2022/12/03 00:38:13;;;;;;;132.60;101.82;;;20.30;50.10;;;;;;5008353;55;21075;-33
2022/12/03 00:43:14;;;;;;;128.70;100.68;;;20.30;50.10;;;;;;4985531;55;21510;-30
2022/12/03 00:48:15;;;;;;;130.12;101.68;;;20.30;50.00;;;;;;4754292;55;21103;-36
2022/12/03 00:53:16;;;;;;;127.00;99.22;;;20.30;50.10;;;;;;4764987;55;21027;-38
2022/12/03 00:58:17;;;;;;;127.12;98.95;;;20.30;50.10;;;;;;4955934;55;20996;-28
2022/12/03 01:03:18;;;;;;;126.05;98.43;;;20.30;50.00;;;;;;4779762;55;21008;-33
2022/12/03 01:08:19;;;;;;;120.30;96.12;;;20.30;49.90;;;;;;4967695;55;21024;-31
2022/12/03 01:13:20;;;;;;;121.55;95.10;;;20.30;49.90;;;;;;4694818;59;21027;-33
2022/12/03 01:18:21;;;;;;;119.28;95.12;;;20.20;49.80;;;;;;4791152;55;21004;-32
2022/12/03 01:23:21;;;;;;;119.57;94.70;;;20.30;49.90;;;;;;4822064;55;21494;-33
2022/12/03 01:28:22;;;;;;;115.80;90.68;;;20.20;49.70;;;;;;4694608;59;21506;-34
2022/12/03 01:33:23;;;;;;;113.53;91.12;;;20.20;49.70;;;;;;4695514;59;21119;-32
2022/12/03 01:38:24;;;;;;;111.30;86.28;;;20.20;49.70;;;;;;5169924;55;21081;-32
2022/12/03 01:43:25;;;;;;;113.00;90.80;;;20.20;49.70;;;;;;4769242;55;21427;-31
2022/12/03 01:48:27;;;;;;;115.22;91.12;;;20.20;49.70;;;;;;4775158;55;21585;-37
2022/12/03 01:53:28;;;;;;;110.90;88.78;;;20.20;49.70;;;;;;5169968;55;21024;-33
2022/12/03 01:58:29;;;;;;;112.57;89.87;;;20.20;49.70;;;;;;5169851;55;21109;-37
2022/12/03 02:03:30;;;;;;;108.18;86.55;;;20.20;49.70;;;;;;4721181;55;21023;-38
2022/12/03 02:08:33;;;;;;;109.60;85.47;;;20.20;49.70;;;;;;4889857;55;21060;-33
2022/12/03 02:13:35;;;;;;;108.07;84.35;;;20.20;49.70;;;;;;4694871;59;21589;-33
2022/12/03 02:18:36;;;;;;;101.75;80.90;;;20.20;49.60;;;;;;4706964;55;21007;-35
2022/12/03 02:24:30;;;;;;;103.12;81.70;;;20.20;49.70;;;;;;5055626;55;21083;-33
2022/12/03 02:29:30;;;;;;;102.70;79.90;;;20.20;49.70;;;;;;4727839;55;21127;-34
2022/12/03 02:34:37;;;;;;;100.82;80.40;;;20.20;49.70;;;;;;4695203;59;21100;-34
2022/12/03 02:39:41;;;;;;;101.10;82.60;;;20.20;49.50;;;;;;4938787;55;20992;-35
2022/12/03 02:44:42;;;;;;;95.62;76.70;;;20.20;49.50;;;;;;4695090;59;21040;-37
2022/12/03 02:49:43;;;;;;;94.95;76.05;;;20.20;49.60;;;;;;4739705;55;21016;-32
2022/12/03 02:54:44;;;;;;;98.07;76.72;;;20.20;49.50;;;;;;5125713;55;21011;-36
2022/12/03 02:59:45;;;;;;;93.22;74.50;;;20.20;49.50;;;;;;4843506;55;21008;-37
2022/12/03 03:04:47;;;;;;;94.10;75.87;;;20.20;49.40;;;;;;4830332;55;21024;-38
2022/12/03 03:09:48;;;;;;;97.35;77.93;;;20.20;49.40;;;;;;5058770;55;21118;-33
2022/12/03 03:14:48;;;;;;;89.47;71.72;;;20.20;49.50;;;;;;4805641;55;21130;-36
2022/12/03 03:19:49;;;;;;;85.55;69.97;;;20.20;49.40;;;;;;5169846;55;21004;-35
2022/12/03 03:24:50;;;;;;;89.93;72.18;;;20.20;49.30;;;;;;4776308;55;21015;-32
2022/12/03 03:29:51;;;;;;;91.00;72.60;;;20.20;49.40;;;;;;4694531;56;21084;-29
2022/12/03 03:34:52;;;;;;;90.47;74.22;;;20.20;50.10;;;;;;5009960;55;21000;-37
2022/12/03 03:39:53;;;;;;;90.22;72.85;;;20.20;49.30;;;;;;4803840;55;21063;-39
2022/12/03 03:44:54;;;;;;;87.35;70.25;;;20.20;49.30;;;;;;5170027;55;21037;-38
2022/12/03 03:49:55;;;;;;;85.38;68.07;;;20.20;49.30;;;;;;4752415;55;21132;-32
2022/12/03 03:54:56;;;;;;;83.80;66.85;;;20.20;49.30;;;;;;4733704;55;21000;-34
2022/12/03 03:59:58;;;;;;;83.40;69.22;;;20.20;49.30;;;;;;4806454;55;21072;-37
2022/12/03 04:04:59;;;;;;;82.22;66.55;;;20.20;49.30;;;;;;4784148;55;21009;-32
2022/12/03 04:12:54;;;;;;;83.15;65.47;;;20.20;49.40;;;;;;4694163;59;21035;-33
2022/12/03 04:23:14;;;;;;;80.62;65.15;;;20.20;49.50;;;;;;4694709;59;21068;-34
2022/12/03 04:38:53;;;;;;;77.45;63.13;;;20.20;49.40;;;;;;4694735;55;21067;-34
2022/12/03 04:50:06;;;;;;;76.03;60.78;;;20.20;49.60;;;;;;4694506;59;21486;-36
2022/12/03 04:55:07;;;;;;;75.90;60.60;;;20.20;49.60;;;;;;4695277;59;21040;-31
2022/12/03 05:00:09;;;;;;;73.80;59.20;;;20.20;49.70;;;;;;4907062;55;21044;-32
2022/12/03 05:05:10;;;;;;;75.53;59.53;;;20.20;49.60;;;;;;4808268;55;21031;-31
2022/12/03 05:10:11;;;;;;;75.05;59.10;;;20.20;49.70;;;;;;4763259;55;21175;-35
2022/12/03 05:15:12;;;;;;;70.40;56.58;;;20.20;49.70;;;;;;5062755;55;20984;-31
2022/12/03 05:25:33;;;;;;;74.00;57.10;;;20.20;49.70;;;;;;4694988;59;21064;-33
2022/12/03 05:30:34;;;;;;;73.90;58.38;;;20.20;49.70;;;;;;4754356;55;21499;-33
2022/12/03 05:35:34;;;;;;;71.60;57.05;;;20.20;49.80;;;;;;5169706;55;21036;-35
2022/12/03 05:40:35;;;;;;;72.55;57.75;;;20.20;49.80;;;;;;4768035;55;21169;-35
2022/12/03 05:45:38;;;;;;;73.50;57.67;;;20.20;49.90;;;;;;4973944;55;21004;-30
2022/12/03 05:50:42;;;;;;;67.65;55.30;;;20.20;49.90;;;;;;5011012;55;21012;-36
2022/12/03 05:55:43;;;;;;;70.78;55.67;;;20.10;49.80;;;;;;4724156;55;21430;-31
2022/12/03 06:00:44;;;;;;;71.32;56.55;;;20.10;49.80;;;;;;4706842;55;21052;-29
2022/12/03 06:05:45;;;;;;;67.75;54.67;;;20.20;49.90;;;;;;4695229;59;21052;-32
2022/12/03 06:10:45;;;;;;;65.15;52.28;;;20.10;49.90;;;;;;4779117;55;21629;-29
2022/12/03 06:15:46;;;;;;;68.45;55.00;;;20.10;49.80;;;;;;4993028;55;21037;-35
2022/12/03 06:20:47;;;;;;;67.28;52.92;;;20.10;49.80;;;;;;4749262;55;21016;-33
2022/12/03 06:25:48;;;;;;;67.15;52.62;;;20.10;49.80;;;;;;4860748;55;21053;-34
2022/12/03 06:30:49;;;;;;;65.80;53.22;;;20.10;49.80;;;;;;4787923;55;21055;-35
2022/12/03 06:35:49;;;;;;;64.18;51.75;;;20.10;49.80;;;;;;4695324;59;20996;-31
2022/12/03 06:40:50;;;;;;;67.22;53.25;;;20.10;49.70;;;;;;4695581;59;20996;-36
2022/12/03 06:45:51;;;;;;;65.40;51.17;;;20.10;49.70;;;;;;4790155;55;21040;-31
2022/12/03 06:50:52;;;;;;;65.07;53.55;;;20.10;49.60;;;;;;4715419;55;21548;-31
2022/12/03 06:55:53;;;;;;;66.10;52.22;;;20.10;49.50;;;;;;4695166;59;21068;-27
2022/12/03 07:00:54;;;;;;;62.25;50.17;;;20.20;49.70;;;;;;4695129;59;21076;-31
2022/12/03 07:05:54;;;;;;;66.80;53.83;;;20.10;49.60;;;;;;4695189;59;21004;-39
2022/12/03 07:10:55;;;;;;;65.20;51.30;;;20.10;49.60;;;;;;4708569;55;21060;-30
2022/12/03 07:15:56;;;;;;;64.70;52.40;;;20.10;49.60;;;;;;4739457;55;21470;-31
2022/12/03 07:20:57;;;;;;;65.68;52.03;;;20.10;49.60;;;;;;4744157;55;21076;-27
2022/12/03 07:25:57;;;;;;;69.90;54.30;;;20.10;49.60;;;;;;4695280;56;21064;-38
2022/12/03 07:30:58;;;;;;;64.18;51.95;;;20.10;49.70;;;;;;4694281;59;21024;-29
2022/12/03 07:35:59;;;;;;;65.95;52.05;;;20.10;49.70;;;;;;5080848;55;21019;-31
2022/12/03 07:41:00;;;;;;;64.07;50.35;;;20.10;49.60;;;;;;5108891;55;21068;-34
2022/12/03 07:46:01;;;;;;;65.75;52.13;;;20.10;49.60;;;;;;4773511;55;21335;-34
2022/12/03 07:51:02;;;;;;;63.87;50.60;;;20.10;49.60;;;;;;4788824;55;21107;-36
2022/12/03 07:56:04;;;;;;;64.07;51.35;;;20.10;49.60;;;;;;4983650;55;21465;-37
2022/12/03 08:01:05;;;;;;;64.87;51.40;;;20.10;49.60;;;;;;4720752;55;21072;-36
2022/12/03 08:06:06;;;;;;;63.83;51.15;;;20.10;49.60;;;;;;4886081;55;21518;-31
2022/12/03 08:11:13;;;;;;;66.68;52.65;;;20.10;49.50;;;;;;4842717;55;21032;-29
2022/12/03 08:16:17;;;;;;;68.57;52.92;;;20.10;49.50;;;;;;4841662;55;21588;-34
2022/12/03 08:21:19;;;;;;;67.03;54.00;;;20.20;49.50;;;;;;4858303;55;21016;-41
2022/12/03 08:26:27;;;;;;;67.82;53.38;;;20.10;49.40;;;;;;4745100;55;20996;-33
2022/12/03 08:31:31;;;;;;;67.15;51.88;;;20.20;49.50;;;;;;4719670;55;20997;-36
2022/12/03 08:36:33;;;;;;;67.18;50.95;;;20.10;49.40;;;;;;4925392;55;21534;-31
2022/12/03 08:47:23;;;;;;;69.72;54.63;;;20.10;49.40;;;;;;4693842;55;21044;-30
2022/12/03 08:52:30;;;;;;;72.65;54.83;;;20.10;49.40;;;;;;4954762;55;21099;-30
2022/12/03 08:57:33;;;;;;;68.87;54.28;;;20.10;49.40;;;;;;4780318;55;21070;-29
2022/12/03 09:02:34;;;;;;;77.43;58.65;;;20.10;49.40;;;;;;4816920;55;21024;-27
2022/12/03 09:07:35;;;;;;;70.60;53.75;;;20.10;49.30;;;;;;4767812;55;21056;-30
2022/12/03 09:12:36;;;;;;;71.10;55.28;;;20.10;49.40;;;;;;4767252;55;21016;-31
2022/12/03 09:17:37;;;;;;;74.05;55.70;;;20.10;49.40;;;;;;4694494;59;21019;-30
2022/12/03 09:22:37;;;;;;;74.22;56.08;;;20.10;49.40;;;;;;4806109;55;21445;-37
2022/12/03 09:27:38;;;;;;;75.07;58.33;;;20.10;49.40;;;;;;4794058;55;21008;-33
2022/12/03 09:32:39;;;;;;;75.95;57.70;;;20.10;49.40;;;;;;4777595;55;21490;-36
2022/12/03 09:37:40;;;;;;;75.60;55.55;;;20.10;49.40;;;;;;4711201;55;21019;-33
2022/12/03 09:42:41;;;;;;;83.80;60.83;;;20.10;49.40;;;;;;4694977;56;21565;-30
2022/12/03 09:47:46;;;;;;;79.22;59.50;;;20.10;49.30;;;;;;4773114;55;21083;-34
2022/12/03 09:52:48;;;;;;;84.05;61.45;;;20.10;49.40;;;;;;4733729;55;21076;-27
2022/12/03 09:57:54;;;;;;;76.93;59.83;;;20.10;49.30;;;;;;4713763;55;21589;-35
2022/12/03 10:03:01;;;;;;;79.80;61.20;;;20.10;49.30;;;;;;5024126;55;21011;-28
2022/12/03 10:08:06;;;;;;;84.18;63.58;;;20.10;49.30;;;;;;4753900;55;21019;-29
2022/12/03 10:13:14;;;;;;;85.28;64.15;;;20.10;49.30;;;;;;4788881;55;21137;-27
2022/12/03 10:18:20;;;;;;;88.18;64.80;;;20.10;49.30;;;;;;4695400;59;21052;-30
2022/12/03 10:23:27;;;;;;;87.70;64.60;;;20.10;49.30;;;;;;4743600;55;21017;-36
2022/12/03 10:28:34;;;;;;;87.82;68.32;;;20.10;49.30;;;;;;4906567;55;21043;-31
2022/12/03 10:33:40;;;;;;;95.28;71.90;;;20.10;49.30;;;;;;4737464;55;21036;-33
2022/12/03 10:38:41;;;;;;;97.25;72.28;;;20.10;49.40;;;;;;4790041;55;21605;-34
2022/12/03 10:43:42;;;;;;;102.03;74.07;;;20.10;49.30;;;;;;4722821;55;21187;-35
2022/12/03 10:48:43;;;;;;;95.87;72.82;;;20.10;49.40;;;;;;4694506;59;21064;-28
2022/12/03 10:53:44;;;;;;;101.95;76.82;;;20.10;49.30;;;;;;4786001;55;21024;-30
2022/12/03 10:58:44;;;;;;;103.87;76.87;;;20.10;49.30;;;;;;4694543;59;21485;-28
2022/12/03 11:03:46;;;;;;;105.37;81.15;;;20.20;49.40;;;;;;4869713;55;21007;-30
2022/12/03 11:08:52;;;;;;;103.82;78.30;;;20.20;49.40;;;;;;4786602;55;21063;-31
2022/12/03 11:14:01;;;;;;;106.37;76.90;;;20.10;49.30;;;;;;4826147;55;21059;-31
2022/12/03 11:19:03;;;;;;;109.90;81.57;;;20.10;49.30;;;;;;4928262;55;20996;-28
2022/12/03 11:24:14;;;;;;;114.47;84.62;;;20.20;49.40;;;;;;4699786;55;21581;-29
2022/12/03 11:29:15;;;;;;;117.28;86.00;;;20.20;49.40;;;;;;4915268;55;20996;-29
2022/12/03 11:35:01;;;;;;;118.75;86.78;;;20.20;49.50;;;;;;4956701;55;21573;-29
2022/12/03 11:41:55;;;;;;;117.70;89.68;;;20.20;49.90;;;;;;4773204;55;21040;-35
2022/12/03 11:46:58;;;;;;;120.85;92.03;;;20.20;49.40;;;;;;4695505;55;21542;-40
2022/12/03 11:52:01;;;;;;;125.28;94.72;;;20.20;49.40;;;;;;4714608;55;21495;-28
2022/12/03 11:57:13;;;;;;;129.10;97.53;;;20.20;49.50;;;;;;4858867;55;21032;-32
2022/12/03 12:02:20;;;;;;;133.75;97.85;;;20.20;49.40;;;;;;5169698;55;21048;-28
2022/12/03 12:07:36;;;;;;;133.60;99.00;;;20.20;50.20;;;;;;4868953;55;21012;-27
2022/12/03 12:12:43;;;;;;;140.73;102.35;;;20.20;49.50;;;;;;4694942;59;20975;-31
2022/12/03 12:17:43;;;;;;;143.00;104.50;;;20.20;49.50;;;;;;4770889;55;21514;-32
2022/12/03 12:22:44;;;;;;;146.57;106.00;;;20.20;49.70;;;;;;4694806;59;21177;-36
2022/12/03 12:27:48;;;;;;;142.93;103.57;;;20.20;49.60;;;;;;5112243;55;21088;-36
2022/12/03 12:32:51;;;;;;;149.18;106.75;;;20.10;49.60;;;;;;4695259;59;21526;-33
2022/12/03 12:38:01;;;;;;;141.27;103.18;;;20.10;49.60;;;;;;4896112;55;21012;-29
2022/12/03 12:43:25;;;;;;;148.48;108.57;;;20.10;49.60;;;;;;4773585;55;21044;-30
2022/12/03 12:48:29;;;;;;;152.95;113.88;;;20.10;49.60;;;;;;4709564;55;21148;-29
2022/12/03 12:53:33;;;;;;;147.15;108.95;;;20.10;49.60;;;;;;4874190;55;20988;-36
2022/12/03 12:58:35;;;;;;;150.12;110.03;;;20.10;49.60;;;;;;5038659;55;21008;-31
2022/12/03 13:03:38;;;;;;;153.80;112.82;;;20.10;49.60;;;;;;4700439;55;21012;-31
2022/12/03 13:08:43;;;;;;;149.12;110.55;;;20.20;49.70;;;;;;4898067;55;21024;-35
2022/12/03 13:13:43;;;;;;;153.38;114.45;;;20.20;49.70;;;;;;4847118;55;21048;-30
2022/12/03 13:18:47;;;;;;;158.02;116.90;;;20.20;49.70;;;;;;5054291;55;21059;-31
2022/12/03 13:23:56;;;;;;;161.43;117.78;;;20.20;49.70;;;;;;4695406;59;21047;-38
2022/12/03 13:28:57;;;;;;;162.15;119.20;;;20.20;49.70;;;;;;5036794;55;21067;-28
2022/12/03 13:33:59;;;;;;;163.95;120.60;;;20.10;49.70;;;;;;5143246;55;20993;-28
2022/12/03 13:39:01;;;;;;;153.35;116.78;;;20.20;49.80;;;;;;4695453;59;20992;-35
2022/12/03 13:44:11;;;;;;;159.43;118.78;;;20.20;49.80;;;;;;4810057;55;21040;-36
2022/12/03 13:49:19;;;;;;;161.75;118.90;;;20.20;49.80;;;;;;4724765;55;21513;-33
2022/12/03 13:54:25;;;;;;;156.90;115.37;;;20.10;49.80;;;;;;4950157;55;21028;-33
2022/12/03 13:59:25;;;;;;;168.60;121.20;;;20.20;49.80;;;;;;4896736;55;21000;-33
2022/12/03 14:04:26;;;;;;;164.73;119.53;;;20.20;49.90;;;;;;4750265;55;21048;-28
2022/12/03 14:09:27;;;;;;;171.27;125.20;;;20.20;49.90;;;;;;4761138;55;21485;-38
2022/12/03 14:14:28;;;;;;;173.30;125.18;;;20.10;49.90;;;;;;4758643;55;21028;-28
2022/12/03 14:19:29;;;;;;;164.73;123.25;;;20.10;49.90;;;;;;4695105;59;21012;-36
2022/12/03 14:24:30;;;;;;;169.32;123.43;;;20.20;49.90;;;;;;4761369;55;20996;-36
2022/12/03 14:29:31;;;;;;;175.90;124.47;;;20.20;50.00;;;;;;5006921;55;21132;-32
2022/12/03 14:34:31;;;;;;;172.43;127.38;;;20.20;50.00;;;;;;4944767;55;21493;-37
2022/12/03 14:39:32;;;;;;;168.37;125.53;;;20.20;49.90;;;;;;4898878;55;21478;-35
2022/12/03 14:44:33;;;;;;;177.62;128.12;;;20.10;49.90;;;;;;4770520;55;21039;-33
2022/12/03 14:49:34;;;;;;;171.98;126.65;;;20.20;50.00;;;;;;5065170;55;21076;-35
2022/12/03 14:54:35;;;;;;;174.23;126.25;;;20.20;50.00;;;;;;4694942;59;21009;-35
2022/12/03 14:59:36;;;;;;;170.93;126.07;;;20.10;49.90;;;;;;4913419;55;21000;-39
2022/12/03 15:04:38;;;;;;;172.48;126.07;;;20.20;50.00;;;;;;4737430;55;21005;-30
2022/12/03 15:09:38;;;;;;;177.20;127.28;;;20.20;50.00;;;;;;5169687;55;21016;-38
2022/12/03 15:14:40;;;;;;;176.57;126.62;;;20.20;50.00;;;;;;4745324;55;21024;-36
2022/12/03 15:19:41;;;;;;;173.87;127.07;;;20.20;50.00;;;;;;4761112;55;21605;-38
2022/12/03 15:24:41;;;;;;;171.32;124.57;;;20.20;50.00;;;;;;4843915;55;20996;-31
2022/12/03 15:29:42;;;;;;;179.18;125.68;;;20.20;50.00;;;;;;5169326;55;21008;-36
2022/12/03 15:34:43;;;;;;;175.77;124.35;;;20.20;50.00;;;;;;4817895;55;21583;-41
2022/12/03 15:39:44;;;;;;;177.25;128.52;;;20.10;49.90;;;;;;4952547;55;21545;-38
2022/12/03 15:44:44;;;;;;;178.55;126.50;;;20.20;50.00;;;;;;5037338;55;21083;-36
2022/12/03 15:49:47;;;;;;;169.37;124.22;;;20.20;50.00;;;;;;4694638;56;21020;-30
2022/12/03 15:54:50;;;;;;;180.15;128.85;;;20.20;50.00;;;;;;4695080;59;21525;-32
2022/12/03 15:59:51;;;;;;;170.62;121.93;;;20.20;50.00;;;;;;4694748;59;21100;-32
2022/12/03 16:04:52;;;;;;;176.20;126.47;;;20.20;50.00;;;;;;5169712;55;21059;-34
2022/12/03 16:09:54;;;;;;;171.70;125.78;;;20.20;49.50;;;;;;4754412;55;21056;-39
2022/12/03 16:14:54;;;;;;;176.87;127.65;;;20.20;49.90;;;;;;4695060;59;21023;-32
2022/12/03 16:19:55;;;;;;;171.70;122.55;;;20.20;50.00;;;;;;4956927;55;21498;-35
2022/12/03 16:24:56;;;;;;;178.02;127.93;;;20.20;50.00;;;;;;4845090;55;21089;-36
2022/12/03 16:29:57;;;;;;;169.98;124.82;;;20.10;49.90;;;;;;4999540;55;21015;-34
2022/12/03 16:34:57;;;;;;;176.12;127.18;;;20.20;50.00;;;;;;4882940;55;21008;-36
2022/12/03 16:39:58;;;;;;;177.32;126.95;;;20.10;50.00;;;;;;4694970;59;21043;-30
2022/12/03 16:51:30;;;;;;;175.18;126.07;;;20.20;50.00;;;;;;5091573;55;21430;-32
2022/12/03 16:56:32;;;;;;;174.15;124.82;;;20.10;50.00;;;;;;4695285;59;21031;-38
2022/12/03 17:01:32;;;;;;;180.35;128.25;;;20.20;50.00;;;;;;4768234;55;21000;-36
2022/12/03 17:06:33;;;;;;;176.82;126.62;;;20.10;49.90;;;;;;5040014;55;21079;-37
2022/12/03 17:11:34;;;;;;;178.93;126.80;;;20.20;50.00;;;;;;5125870;55;21613;-38
2022/12/03 17:16:35;;;;;;;170.75;122.07;;;20.20;50.00;;;;;;4742754;55;21043;-37
2022/12/03 17:21:35;;;;;;;174.52;126.22;;;20.20;50.00;;;;;;4695251;59;21020;-36
2022/12/03 17:26:36;;;;;;;167.70;123.05;;;20.20;50.00;;;;;;4840238;55;21060;-37
2022/12/03 17:31:37;;;;;;;183.15;127.00;;;20.20;50.00;;;;;;4748354;55;21061;-36
2022/12/03 17:36:38;;;;;;;171.23;123.00;;;20.10;49.90;;;;;;4792288;55;21001;-38
2022/12/03 17:41:39;;;;;;;169.57;124.95;;;20.20;50.00;;;;;;4745582;55;21031;-33
2022/12/03 17:46:40;;;;;;;171.30;125.12;;;20.20;50.00;;;;;;4694329;56;21143;-30
2022/12/03 17:51:40;;;;;;;171.48;125.80;;;20.20;50.00;;;;;;4727817;55;21534;-38
2022/12/03 17:56:44;;;;;;;167.45;123.18;;;20.10;49.90;;;;;;4932282;55;21123;-32
2022/12/03 18:01:45;;;;;;;167.60;123.32;;;20.10;49.90;;;;;;4739722;55;21025;-34
2022/12/03 18:06:45;;;;;;;172.93;124.25;;;20.20;50.00;;;;;;4747734;55;21020;-35
2022/12/03 18:11:46;;;;;;;176.52;124.45;;;20.20;50.00;;;;;;4841884;55;21012;-37
2022/12/03 18:16:47;;;;;;;169.85;121.35;;;20.10;49.90;;;;;;4695015;59;21016;-31
2022/12/03 18:21:48;;;;;;;172.95;122.28;;;20.20;50.00;;;;;;4719774;55;21004;-33
2022/12/03 18:26:49;;;;;;;170.30;122.43;;;20.10;49.90;;;;;;4703616;55;21036;-37
2022/12/03 18:31:50;;;;;;;168.48;121.47;;;20.10;49.90;;;;;;5169826;55;21064;-37
2022/12/03 18:36:51;;;;;;;170.32;121.62;;;20.10;49.90;;;;;;4711201;55;21100;-31
2022/12/03 18:41:52;;;;;;;165.32;119.80;;;20.20;49.90;;;;;;4794869;55;21051;-36
2022/12/03 18:46:54;;;;;;;170.50;123.97;;;20.10;49.90;;;;;;4944143;55;21041;-32
2022/12/03 18:51:55;;;;;;;167.75;121.47;;;20.10;49.80;;;;;;4958683;55;21465;-39
2022/12/03 18:56:56;;;;;;;167.02;118.30;;;20.10;49.80;;;;;;4767796;55;20996;-35
2022/12/03 19:01:57;;;;;;;163.32;118.28;;;20.10;49.80;;;;;;5039424;55;21019;-34
2022/12/03 19:06:59;;;;;;;169.32;120.18;;;20.10;49.80;;;;;;5158796;55;21521;-38
2022/12/03 19:12:00;;;;;;;164.02;117.47;;;20.10;49.80;;;;;;4799284;55;21459;-35
2022/12/03 19:17:02;;;;;;;165.07;116.60;;;20.10;49.40;;;;;;4907769;55;21012;-30
2022/12/03 19:22:03;;;;;;;165.77;118.37;;;20.20;49.80;;;;;;4834957;55;21008;-37
2022/12/03 19:27:03;;;;;;;161.88;117.13;;;20.10;49.80;;;;;;4927894;55;21032;-36
2022/12/03 19:32:04;;;;;;;166.25;117.93;;;20.10;49.70;;;;;;4753110;55;21008;-37
2022/12/03 19:37:05;;;;;;;163.62;116.88;;;20.10;49.60;;;;;;4846341;55;21549;-29
2022/12/03 19:42:06;;;;;;;169.62;116.18;;;20.10;49.70;;;;;;4909022;55;21048;-33
2022/12/03 19:47:07;;;;;;;162.18;116.57;;;20.10;49.70;;;;;;5137419;55;21154;-33
2022/12/03 19:52:08;;;;;;;163.77;114.75;;;20.10;50.40;;;;;;4874241;55;21067;-37
2022/12/03 19:57:08;;;;;;;156.35;112.12;;;20.10;49.60;;;;;;4702241;55;21023;-37
2022/12/03 20:02:10;;;;;;;160.43;114.43;;;20.10;49.60;;;;;;4914385;55;20983;-33
2022/12/03 20:07:11;;;;;;;162.65;116.88;;;20.10;49.60;;;;;;4979368;55;21027;-36
2022/12/03 20:12:12;;;;;;;157.05;113.20;;;20.10;49.60;;;;;;5104801;55;21561;-38
2022/12/03 20:17:13;;;;;;;158.87;113.47;;;20.10;49.60;;;;;;4834213;55;21132;-39
2022/12/03 20:22:13;;;;;;;157.68;111.53;;;20.10;49.70;;;;;;4880649;55;20988;-37
2022/12/03 20:27:14;;;;;;;157.55;110.37;;;20.10;49.70;;;;;;4926659;55;21063;-37
2022/12/03 20:32:15;;;;;;;158.25;110.32;;;20.10;49.60;;;;;;4809814;55;21000;-32
2022/12/03 20:37:16;;;;;;;160.15;112.90;;;20.10;49.60;;;;;;5021557;55;21019;-30
2022/12/03 20:42:17;;;;;;;158.95;113.45;;;20.10;49.60;;;;;;5001441;55;21068;-30
2022/12/03 20:47:18;;;;;;;161.07;112.12;;;20.10;49.60;;;;;;4756492;55;21048;-38
2022/12/03 20:52:19;;;;;;;160.93;113.10;;;20.10;49.60;;;;;;4807312;55;21003;-32
2022/12/03 20:57:20;;;;;;;153.90;109.53;;;20.10;49.60;;;;;;4823297;55;21074;-38
2022/12/03 21:02:21;;;;;;;156.90;109.57;;;20.10;49.60;;;;;;4939030;55;21000;-38
2022/12/03 21:07:21;;;;;;;153.73;107.82;;;20.10;49.60;;;;;;4739363;55;21497;-35
2022/12/03 21:12:22;;;;;;;155.20;109.30;;;20.10;50.20;;;;;;4785566;55;21012;-32
2022/12/03 21:17:23;;;;;;;155.75;109.45;;;20.10;49.50;;;;;;4724194;55;21019;-29
2022/12/03 21:22:24;;;;;;;156.80;110.65;;;20.10;49.50;;;;;;4736949;55;21015;-29
2022/12/03 21:27:25;;;;;;;155.30;108.20;;;20.10;49.50;;;;;;4694697;59;21568;-35
2022/12/03 21:32:25;;;;;;;157.88;108.60;;;20.10;49.50;;;;;;4940915;55;21088;-35
2022/12/03 21:37:26;;;;;;;154.93;108.90;;;20.10;49.50;;;;;;4695138;59;21012;-32
2022/12/03 21:42:27;;;;;;;153.18;104.90;;;20.10;49.50;;;;;;4769353;55;21025;-35
2022/12/03 21:47:28;;;;;;;154.52;108.63;;;20.10;49.50;;;;;;4762514;55;21024;-31
2022/12/03 21:52:28;;;;;;;158.07;107.60;;;20.10;49.40;;;;;;4793736;55;21004;-33
2022/12/03 21:57:29;;;;;;;150.93;108.12;;;20.10;49.40;;;;;;4760600;55;21087;-29
2022/12/03 22:02:30;;;;;;;154.43;107.20;;;20.10;49.40;;;;;;4886560;55;20980;-27
2022/12/03 22:07:32;;;;;;;147.10;104.38;;;20.10;49.50;;;;;;4695508;55;21099;-32
2022/12/03 22:12:33;;;;;;;157.43;108.47;;;20.10;49.40;;;;;;4953106;55;21036;-34
2022/12/03 22:17:35;;;;;;;158.65;109.50;;;20.10;49.40;;;;;;4832477;55;21060;-34
2022/12/03 22:22:36;;;;;;;154.48;106.32;;;20.10;49.40;;;;;;4700036;55;21470;-35
2022/12/03 22:27:37;;;;;;;156.18;107.05;;;20.10;49.40;;;;;;4826651;55;21031;-35
2022/12/03 22:32:38;;;;;;;154.30;106.18;;;20.10;49.40;;;;;;5169760;55;21131;-36
2022/12/03 22:37:38;;;;;;;153.65;108.10;;;20.10;49.30;;;;;;4740668;55;21020;-36
2022/12/03 22:42:39;;;;;;;148.65;102.55;;;20.10;49.30;;;;;;4712983;55;21573;-33
2022/12/03 22:47:40;;;;;;;147.55;103.78;;;20.10;49.30;;;;;;4932112;55;21096;-34
2022/12/03 22:52:41;;;;;;;148.35;102.50;;;20.00;49.30;;;;;;4853525;55;21008;-36
2022/12/03 22:57:41;;;;;;;146.45;104.03;;;20.10;49.30;;;;;;4804755;55;21016;-34
2022/12/03 23:02:42;;;;;;;146.48;99.25;;;20.10;49.20;;;;;;4740325;55;21064;-34
2022/12/03 23:07:43;;;;;;;146.60;103.30;;;20.00;49.20;;;;;;4933437;55;21032;-33
2022/12/03 23:12:44;;;;;;;144.52;101.55;;;20.10;49.30;;;;;;4715712;55;21008;-35
2022/12/03 23:17:45;;;;;;;139.57;99.40;;;20.00;49.20;;;;;;4831171;55;21468;-34
2022/12/03 23:22:47;;;;;;;142.32;98.32;;;20.10;49.20;;;;;;4695375;56;21068;-32
2022/12/03 23:27:48;;;;;;;140.60;99.43;;;20.10;49.30;;;;;;4832860;55;21498;-32
2022/12/03 23:32:50;;;;;;;142.73;98.93;;;20.10;49.20;;;;;;4903946;55;21048;-34
2022/12/03 23:37:51;;;;;;;144.70;101.00;;;20.10;49.20;;;;;;4726441;55;21561;-34
2022/12/03 23:42:52;;;;;;;135.63;95.80;;;20.10;49.20;;;;;;4851530;55;21080;-30
2022/12/03 23:47:53;;;;;;;134.27;95.03;;;20.10;49.20;;;;;;4716840;55;21019;-30
2022/12/03 23:52:53;;;;;;;141.95;98.45;;;20.10;49.20;;;;;;4859021;55;21051;-34
2022/12/03 23:57:54;;;;;;;136.45;96.20;;;20.10;49.30;;;;;;4813014;55;21565;-31
